Time;durP1;ratioP1;P1;durP2;ratioP2;P2;SDS_P1;SDS_P2;PMS_P1;PMS_P2;Temp;Humidity;BMP_temperature;BMP_pressure;BME280_temperature;BME280_humidity;BME280_pressure;Samples;Min_cycle;Max_cycle;Signal;HPM_P1;HPM_P2
2021/09/18 00:02:21;;;;;;;39.53;31.88;;;15.70;99.90;;;;;;5022306;28;20030;-79
2021/09/18 00:04:47;;;;;;;41.20;32.10;;;15.70;99.90;;;;;;5033916;28;20022;-79
2021/09/18 00:07:13;;;;;;;40.28;31.23;;;15.70;99.90;;;;;;5032480;28;20025;-79
2021/09/18 00:09:38;;;;;;;41.13;32.45;;;15.60;99.90;;;;;;5033154;28;20030;-79
2021/09/18 00:12:04;;;;;;;43.67;32.63;;;15.50;99.90;;;;;;5032739;28;20060;-79
2021/09/18 00:14:30;;;;;;;42.00;33.75;;;15.50;99.90;;;;;;5032550;28;20025;-79
2021/09/18 00:16:55;;;;;;;44.05;33.72;;;15.50;99.90;;;;;;5016783;28;20021;-79
2021/09/18 00:19:21;;;;;;;61.13;51.13;;;15.60;99.90;;;;;;5032276;28;20057;-79
2021/09/18 00:21:47;;;;;;;56.08;43.85;;;15.40;99.90;;;;;;5032086;28;20054;-79
2021/09/18 00:24:13;;;;;;;42.67;35.00;;;15.40;99.90;;;;;;5031468;28;20026;-79
2021/09/18 00:26:38;;;;;;;45.13;37.55;;;15.50;99.90;;;;;;5031325;28;20022;-79
2021/09/18 00:29:04;;;;;;;42.45;33.95;;;15.50;99.90;;;;;;5017030;28;20476;-79
2021/09/18 00:31:30;;;;;;;64.07;47.58;;;15.40;99.90;;;;;;5016673;28;20113;-79
2021/09/18 00:33:56;;;;;;;58.03;45.20;;;15.30;99.90;;;;;;5032243;28;20062;-79
2021/09/18 00:36:22;;;;;;;51.97;39.63;;;15.40;99.90;;;;;;5032080;28;20026;-79
2021/09/18 00:38:48;;;;;;;50.97;38.40;;;15.40;99.90;;;;;;5031989;28;20022;-79
2021/09/18 00:41:14;;;;;;;47.72;35.95;;;15.50;99.90;;;;;;5031560;28;20028;-79
2021/09/18 00:43:39;;;;;;;48.00;36.15;;;15.50;99.90;;;;;;5016587;28;20025;-79
2021/09/18 00:46:05;;;;;;;52.22;38.55;;;15.50;99.90;;;;;;5032057;28;20030;-79
2021/09/18 00:48:31;;;;;;;50.53;39.38;;;15.50;99.90;;;;;;5031758;28;20394;-79
2021/09/18 00:50:57;;;;;;;54.97;42.50;;;15.30;99.90;;;;;;5016920;28;20022;-79
2021/09/18 00:53:23;;;;;;;54.20;41.50;;;15.20;99.90;;;;;;5015483;28;20053;-79
2021/09/18 00:55:49;;;;;;;57.22;44.15;;;15.10;99.90;;;;;;5017736;28;20056;-79
2021/09/18 00:58:15;;;;;;;83.53;54.40;;;15.20;99.90;;;;;;5034720;28;20037;-80
2021/09/18 01:00:42;;;;;;;55.88;40.20;;;15.20;99.90;;;;;;5017896;28;20037;-79
2021/09/18 01:03:08;;;;;;;56.03;41.40;;;15.20;99.90;;;;;;5035087;28;20029;-80
2021/09/18 01:05:34;;;;;;;64.75;44.67;;;15.10;99.90;;;;;;5034718;28;20028;-80
2021/09/18 01:08:00;;;;;;;69.85;47.80;;;15.00;99.90;;;;;;5018554;28;20028;-79
2021/09/18 01:10:28;;;;;;;73.80;46.88;;;15.10;99.90;;;;;;5019311;28;20026;-80
2021/09/18 01:13:03;;;;;;;82.55;50.55;;;15.00;99.90;;;;;;5018957;28;20045;-80
2021/09/18 01:15:30;;;;;;;92.78;52.58;;;15.10;99.90;;;;;;5019343;28;20022;-80
2021/09/18 01:17:58;;;;;;;62.40;42.28;;;15.00;99.90;;;;;;5033463;28;20029;-80
2021/09/18 01:20:24;;;;;;;124.63;66.03;;;15.10;99.90;;;;;;5033616;28;20087;-79
2021/09/18 01:22:51;;;;;;;194.50;98.45;;;15.00;99.90;;;;;;5033038;28;20430;-80
2021/09/18 01:25:17;;;;;;;73.10;46.83;;;14.70;99.90;;;;;;5033635;28;20022;-80
2021/09/18 01:27:44;;;;;;;68.28;45.72;;;14.60;99.90;;;;;;5019339;28;20026;-80
2021/09/18 01:30:16;;;;;;;92.10;53.92;;;14.70;99.90;;;;;;5019160;28;20279;-80
2021/09/18 01:32:42;;;;;;;98.93;57.30;;;14.70;99.90;;;;;;5018287;28;20515;-80
2021/09/18 01:35:08;;;;;;;86.85;52.15;;;14.70;99.90;;;;;;5035117;28;20025;-80
2021/09/18 01:37:36;;;;;;;78.15;48.25;;;14.80;99.90;;;;;;5018929;28;20029;-80
2021/09/18 01:40:03;;;;;;;75.45;48.40;;;14.70;99.90;;;;;;5035302;28;20033;-80
2021/09/18 01:42:28;;;;;;;80.25;48.92;;;14.70;99.90;;;;;;5034048;28;20022;-80
2021/09/18 01:44:54;;;;;;;71.53;47.92;;;14.80;99.90;;;;;;5034286;28;20022;-80
2021/09/18 01:47:19;;;;;;;64.95;44.95;;;14.90;99.90;;;;;;5034559;28;20022;-80
2021/09/18 01:49:45;;;;;;;63.58;46.65;;;14.70;99.90;;;;;;5033827;28;20030;-80
2021/09/18 01:54:54;;;;;;;69.28;48.70;;;14.70;99.90;;;;;;5018520;28;20057;-80
2021/09/18 01:57:20;;;;;;;65.47;45.65;;;14.70;99.90;;;;;;5033620;28;20026;-80
2021/09/18 01:59:46;;;;;;;65.75;46.63;;;14.70;99.90;;;;;;5032939;28;20030;-80
2021/09/18 02:02:11;;;;;;;64.15;45.42;;;14.80;99.90;;;;;;5033486;28;20057;-80
2021/09/18 02:04:37;;;;;;;62.58;43.28;;;14.80;99.90;;;;;;5017447;28;20028;-80
2021/09/18 02:07:02;;;;;;;65.63;46.00;;;14.70;99.90;;;;;;5016946;28;20391;-80
2021/09/18 02:09:28;;;;;;;65.53;45.85;;;14.70;99.90;;;;;;5032718;28;20065;-80
2021/09/18 02:11:54;;;;;;;66.97;47.20;;;14.80;99.90;;;;;;5017701;28;20068;-80
2021/09/18 02:14:19;;;;;;;63.35;46.33;;;14.80;99.90;;;;;;5017839;28;20542;-80
2021/09/18 02:16:45;;;;;;;66.30;46.97;;;14.90;99.90;;;;;;5019200;28;20467;-80
2021/09/18 02:19:11;;;;;;;63.05;46.15;;;15.00;99.90;;;;;;5034592;28;20379;-80
2021/09/18 02:21:37;;;;;;;63.95;45.97;;;14.90;99.90;;;;;;5034452;28;20026;-80
2021/09/18 02:24:02;;;;;;;59.92;44.28;;;14.90;99.90;;;;;;5034346;28;20017;-80
2021/09/18 02:26:28;;;;;;;60.92;44.25;;;14.90;99.90;;;;;;5034482;28;20161;-80
2021/09/18 02:28:54;;;;;;;60.72;43.20;;;15.00;99.90;;;;;;5033972;28;20026;-80
2021/09/18 02:31:19;;;;;;;57.75;42.80;;;15.00;99.90;;;;;;5018840;28;20026;-80
2021/09/18 02:33:45;;;;;;;52.67;39.95;;;15.00;99.90;;;;;;5033815;28;20029;-80
2021/09/18 02:36:10;;;;;;;53.38;38.88;;;14.90;99.90;;;;;;5033902;28;20018;-80
2021/09/18 02:38:36;;;;;;;62.17;44.08;;;14.70;99.90;;;;;;5018691;28;20101;-80
2021/09/18 02:41:02;;;;;;;65.78;45.53;;;14.70;99.90;;;;;;5017974;28;20105;-79
2021/09/18 02:43:28;;;;;;;61.85;45.50;;;14.80;99.90;;;;;;5033102;28;20121;-80
2021/09/18 02:45:54;;;;;;;65.78;48.58;;;14.90;99.90;;;;;;5034130;28;20022;-80
2021/09/18 02:48:19;;;;;;;63.35;46.13;;;14.90;99.90;;;;;;5016958;28;20022;-80
2021/09/18 02:50:46;;;;;;;66.28;46.58;;;14.90;99.90;;;;;;5020032;28;20060;-80
2021/09/18 02:53:12;;;;;;;64.38;44.95;;;14.90;99.90;;;;;;5036848;28;20056;-80
2021/09/18 02:55:37;;;;;;;58.25;44.92;;;14.90;99.90;;;;;;5020879;28;20030;-80
2021/09/18 02:58:03;;;;;;;58.03;42.25;;;14.80;99.90;;;;;;5037071;28;20053;-80
2021/09/18 03:00:29;;;;;;;59.20;42.92;;;14.80;99.90;;;;;;5037095;28;20033;-80
2021/09/18 03:02:55;;;;;;;53.88;41.75;;;14.80;99.90;;;;;;5037502;28;20059;-80
2021/09/18 03:05:20;;;;;;;58.28;42.22;;;14.80;99.90;;;;;;5037461;28;20022;-80
2021/09/18 03:07:46;;;;;;;59.72;44.08;;;14.80;99.90;;;;;;5037656;28;20029;-80
2021/09/18 03:10:12;;;;;;;60.30;43.00;;;14.70;99.90;;;;;;5021776;28;20030;-80
2021/09/18 03:12:38;;;;;;;59.90;43.42;;;14.80;99.90;;;;;;5038038;28;20125;-80
2021/09/18 03:15:06;;;;;;;61.50;44.03;;;14.90;99.90;;;;;;5022883;28;20030;-80
2021/09/18 03:17:32;;;;;;;59.10;43.33;;;14.90;99.90;;;;;;5022405;28;20030;-80
2021/09/18 03:19:57;;;;;;;58.70;43.47;;;14.80;99.90;;;;;;5021176;28;20029;-80
2021/09/18 03:22:23;;;;;;;61.80;43.65;;;14.60;99.90;;;;;;5022496;28;20026;-80
2021/09/18 03:24:49;;;;;;;64.40;45.53;;;14.50;99.90;;;;;;5038582;28;20026;-80
2021/09/18 03:27:15;;;;;;;59.22;43.70;;;14.40;99.90;;;;;;5037527;28;20037;-80
2021/09/18 03:29:41;;;;;;;65.20;46.17;;;14.40;99.90;;;;;;5020667;28;20034;-79
2021/09/18 03:32:07;;;;;;;68.28;48.53;;;14.30;99.90;;;;;;5019401;28;20025;-80
2021/09/18 03:34:33;;;;;;;69.75;48.35;;;14.50;99.90;;;;;;5035647;28;20075;-80
2021/09/18 03:36:58;;;;;;;63.10;45.90;;;14.50;99.90;;;;;;5017954;28;20131;-79
2021/09/18 03:39:24;;;;;;;62.78;46.35;;;14.50;99.90;;;;;;5033573;28;20031;-79
2021/09/18 03:41:50;;;;;;;62.53;46.20;;;14.50;99.90;;;;;;5016818;28;20111;-79
2021/09/18 03:44:15;;;;;;;64.50;45.55;;;14.50;99.90;;;;;;5018462;28;20025;-79
2021/09/18 03:46:41;;;;;;;62.15;44.50;;;14.60;99.90;;;;;;5033563;28;20121;-79
2021/09/18 03:49:07;;;;;;;56.85;42.75;;;14.60;99.90;;;;;;5017353;28;20026;-79
2021/09/18 03:51:32;;;;;;;54.58;41.88;;;14.50;99.90;;;;;;5017140;28;20037;-79
2021/09/18 03:53:58;;;;;;;52.22;38.95;;;14.50;99.90;;;;;;5017666;28;20506;-79
2021/09/18 03:56:24;;;;;;;55.95;39.80;;;14.50;99.90;;;;;;5018026;28;20026;-79
2021/09/18 03:58:49;;;;;;;50.85;39.17;;;14.40;99.90;;;;;;5018195;28;20030;-79
2021/09/18 04:01:15;;;;;;;50.40;39.28;;;14.40;99.90;;;;;;5015794;28;20025;-79
2021/09/18 04:03:40;;;;;;;52.70;38.97;;;14.50;99.90;;;;;;5033638;28;20022;-79
2021/09/18 04:06:06;;;;;;;50.45;37.67;;;14.40;99.90;;;;;;5018820;28;20026;-79
2021/09/18 04:08:32;;;;;;;43.13;34.78;;;14.30;99.90;;;;;;5033954;28;20022;-79
2021/09/18 04:10:58;;;;;;;49.70;38.25;;;14.30;99.90;;;;;;5032929;28;20045;-79
2021/09/18 04:13:23;;;;;;;52.38;37.95;;;14.30;99.90;;;;;;5033655;28;20026;-79
2021/09/18 04:15:49;;;;;;;47.72;36.20;;;14.30;99.90;;;;;;5018180;28;20053;-79
2021/09/18 04:18:15;;;;;;;54.00;39.03;;;14.30;99.90;;;;;;5033992;28;20029;-79
2021/09/18 04:20:42;;;;;;;52.05;38.35;;;14.40;99.90;;;;;;5018738;28;20053;-79
2021/09/18 04:23:07;;;;;;;51.20;37.60;;;14.40;99.90;;;;;;5033427;28;20462;-79
2021/09/18 04:25:33;;;;;;;48.83;37.63;;;14.40;99.90;;;;;;5018621;28;20045;-79
2021/09/18 04:27:58;;;;;;;50.97;37.30;;;14.30;99.90;;;;;;5018623;28;20030;-79
2021/09/18 04:30:24;;;;;;;48.38;34.38;;;14.40;99.90;;;;;;5033771;28;20387;-79
2021/09/18 04:32:50;;;;;;;53.33;36.10;;;14.40;99.90;;;;;;5018625;28;20033;-79
2021/09/18 04:35:15;;;;;;;55.05;38.30;;;14.40;99.90;;;;;;5016863;28;20399;-79
2021/09/18 04:37:41;;;;;;;53.85;38.95;;;14.40;99.90;;;;;;5035925;28;20030;-80
2021/09/18 04:40:07;;;;;;;54.95;37.33;;;14.40;99.90;;;;;;5020202;28;20570;-80
2021/09/18 04:42:33;;;;;;;46.72;34.95;;;14.30;99.90;;;;;;5020638;28;20009;-80
2021/09/18 04:44:59;;;;;;;44.33;34.17;;;14.20;99.90;;;;;;5036752;28;20080;-80
2021/09/18 04:47:24;;;;;;;50.55;35.13;;;14.20;99.90;;;;;;5020894;28;20017;-80
2021/09/18 04:49:50;;;;;;;52.40;37.95;;;14.20;99.90;;;;;;5036345;28;20029;-80
2021/09/18 04:52:16;;;;;;;53.35;39.70;;;14.20;99.90;;;;;;5020282;28;20054;-80
2021/09/18 04:54:41;;;;;;;58.97;40.38;;;14.30;99.90;;;;;;5022443;28;20056;-80
2021/09/18 04:57:07;;;;;;;51.13;38.50;;;14.30;99.90;;;;;;5022520;28;20026;-80
2021/09/18 04:59:32;;;;;;;44.42;35.08;;;14.20;99.90;;;;;;5021749;28;20498;-81
2021/09/18 05:01:58;;;;;;;45.35;34.20;;;14.00;99.90;;;;;;5022463;28;20076;-81
2021/09/18 05:04:24;;;;;;;44.03;33.50;;;13.90;99.90;;;;;;5037973;28;20502;-80
2021/09/18 05:06:49;;;;;;;42.13;33.17;;;13.90;99.90;;;;;;5021907;28;20476;-80
2021/09/18 05:09:15;;;;;;;49.70;37.38;;;13.90;99.90;;;;;;5036935;28;20036;-80
2021/09/18 05:11:41;;;;;;;44.70;34.75;;;14.00;99.90;;;;;;5036656;28;20383;-80
2021/09/18 05:14:06;;;;;;;48.28;33.78;;;14.10;99.90;;;;;;5019826;28;20032;-80
2021/09/18 05:16:32;;;;;;;38.55;31.55;;;13.80;99.90;;;;;;5037188;28;20033;-80
2021/09/18 05:18:58;;;;;;;35.75;29.02;;;13.70;99.90;;;;;;5020982;28;20022;-81
2021/09/18 05:21:23;;;;;;;36.60;28.33;;;13.50;99.90;;;;;;5019392;28;20483;-80
2021/09/18 05:23:49;;;;;;;40.85;29.90;;;13.40;99.90;;;;;;5020792;28;20022;-80
2021/09/18 05:26:16;;;;;;;42.95;31.83;;;13.50;99.90;;;;;;5019027;28;20022;-80
2021/09/18 05:28:41;;;;;;;43.83;31.58;;;13.60;99.90;;;;;;5021215;28;20029;-80
2021/09/18 05:31:07;;;;;;;43.35;30.27;;;13.70;99.90;;;;;;5020037;28;20018;-80
2021/09/18 05:33:33;;;;;;;44.45;32.97;;;13.50;99.90;;;;;;5019919;28;20030;-80
2021/09/18 05:35:58;;;;;;;42.42;31.23;;;13.50;99.90;;;;;;5035842;28;20082;-80
2021/09/18 05:38:24;;;;;;;40.17;31.05;;;13.60;99.90;;;;;;5021532;28;20026;-80
2021/09/18 05:40:50;;;;;;;45.63;32.30;;;13.50;99.90;;;;;;5036860;28;20026;-83
2021/09/18 05:43:15;;;;;;;45.40;34.38;;;13.60;99.90;;;;;;5035268;28;20037;-80
2021/09/18 05:45:41;;;;;;;52.58;37.22;;;13.40;99.90;;;;;;5020094;28;20022;-80
2021/09/18 05:48:07;;;;;;;55.83;39.17;;;13.50;99.90;;;;;;5021281;28;20391;-79
2021/09/18 05:50:34;;;;;;;45.75;34.97;;;13.50;99.90;;;;;;5020445;28;20049;-80
2021/09/18 05:52:59;;;;;;;46.10;33.28;;;13.50;99.90;;;;;;5035795;28;20139;-80
2021/09/18 05:55:25;;;;;;;37.65;29.95;;;13.50;99.90;;;;;;5020450;28;20030;-80
2021/09/18 05:57:51;;;;;;;44.33;34.03;;;13.50;99.90;;;;;;5020264;28;20022;-80
2021/09/18 06:00:17;;;;;;;46.72;33.88;;;13.50;99.90;;;;;;5035544;28;20064;-80
2021/09/18 06:02:43;;;;;;;52.95;39.05;;;13.60;99.90;;;;;;5037305;28;20379;-79
2021/09/18 06:05:10;;;;;;;48.53;36.00;;;13.70;99.90;;;;;;5021724;28;20030;-79
2021/09/18 06:07:36;;;;;;;50.13;35.15;;;13.70;99.90;;;;;;5035460;28;20029;-80
2021/09/18 06:10:03;;;;;;;38.90;29.52;;;13.50;99.90;;;;;;5019216;28;20022;-80
2021/09/18 06:12:28;;;;;;;41.90;31.38;;;13.60;99.90;;;;;;5020503;28;20025;-80
2021/09/18 06:14:54;;;;;;;45.38;33.53;;;13.70;99.90;;;;;;5019919;28;20097;-79
2021/09/18 06:17:20;;;;;;;46.22;35.38;;;13.80;99.90;;;;;;5035414;28;20081;-80
2021/09/18 06:19:45;;;;;;;42.17;32.45;;;13.70;99.90;;;;;;5018101;28;20046;-80
2021/09/18 06:22:12;;;;;;;45.70;34.45;;;13.60;99.90;;;;;;5035120;28;20033;-80
2021/09/18 06:24:43;;;;;;;47.95;34.97;;;13.60;99.90;;;;;;5037974;28;20199;-82
2021/09/18 06:27:09;;;;;;;52.45;37.33;;;13.60;99.90;;;;;;5041846;28;20049;-82
2021/09/18 06:29:35;;;;;;;42.78;33.53;;;13.50;99.90;;;;;;5041120;28;20313;-80
2021/09/18 06:32:01;;;;;;;42.45;32.80;;;13.60;99.90;;;;;;5038708;28;20045;-79
2021/09/18 06:34:27;;;;;;;41.53;31.77;;;13.80;99.90;;;;;;5038097;28;20022;-79
2021/09/18 06:36:53;;;;;;;42.53;33.95;;;13.90;99.90;;;;;;5038855;28;20601;-79
2021/09/18 06:39:19;;;;;;;50.72;36.28;;;14.00;99.90;;;;;;5021911;28;20518;-79
2021/09/18 06:41:44;;;;;;;53.70;37.75;;;14.00;99.90;;;;;;5022144;28;20040;-82
2021/09/18 06:44:10;;;;;;;56.20;39.35;;;14.00;99.90;;;;;;5024388;28;20080;-80
2021/09/18 06:46:36;;;;;;;55.15;40.70;;;14.20;99.90;;;;;;5025828;28;20037;-81
2021/09/18 06:49:04;;;;;;;53.80;39.70;;;14.20;99.90;;;;;;5025616;28;20042;-81
2021/09/18 06:51:31;;;;;;;56.20;40.83;;;14.30;99.90;;;;;;5027594;28;20010;-81
2021/09/18 06:53:56;;;;;;;56.72;39.58;;;14.40;99.90;;;;;;5021176;28;20046;-81
2021/09/18 06:56:22;;;;;;;54.55;40.33;;;14.50;99.90;;;;;;5020782;28;20044;-81
2021/09/18 06:58:47;;;;;;;49.60;37.25;;;14.60;99.90;;;;;;5020752;28;20026;-82
2021/09/18 07:01:13;;;;;;;53.13;40.55;;;14.80;99.90;;;;;;5018016;28;20022;-78
2021/09/18 07:03:39;;;;;;;54.33;39.15;;;15.00;99.90;;;;;;5017873;28;20022;-79
2021/09/18 07:06:05;;;;;;;62.22;41.38;;;15.00;99.90;;;;;;5018542;28;20073;-79
2021/09/18 07:08:31;;;;;;;57.63;44.13;;;15.10;99.90;;;;;;5020319;28;20476;-80
2021/09/18 07:10:57;;;;;;;97.63;77.35;;;15.40;99.90;;;;;;5020616;28;20033;-79
2021/09/18 07:13:22;;;;;;;111.95;92.68;;;15.60;99.90;;;;;;5036677;28;20022;-79
2021/09/18 07:15:48;;;;;;;112.22;92.55;;;15.70;99.90;;;;;;5018805;28;20026;-80
2021/09/18 07:18:14;;;;;;;88.00;68.32;;;15.80;99.90;;;;;;5035832;28;20053;-80
2021/09/18 07:20:39;;;;;;;80.15;63.28;;;16.00;99.90;;;;;;5021727;28;20475;-80
2021/09/18 07:23:05;;;;;;;64.78;50.65;;;16.10;99.90;;;;;;5021106;28;20049;-80
2021/09/18 07:25:31;;;;;;;65.50;46.83;;;16.40;99.90;;;;;;5036740;28;20049;-79
2021/09/18 07:27:56;;;;;;;45.10;34.80;;;16.50;99.90;;;;;;5020095;28;20447;-79
2021/09/18 07:30:22;;;;;;;47.72;35.17;;;16.60;99.90;;;;;;5037142;28;20057;-80
2021/09/18 07:32:48;;;;;;;40.42;31.42;;;16.70;99.90;;;;;;5036672;28;20030;-79
2021/09/18 07:35:13;;;;;;;38.42;28.65;;;16.80;99.90;;;;;;5036691;28;20026;-80
2021/09/18 07:37:40;;;;;;;34.17;27.95;;;17.00;99.90;;;;;;5021362;28;20030;-80
2021/09/18 07:40:08;;;;;;;33.25;26.42;;;17.00;99.90;;;;;;5021808;28;20036;-80
2021/09/18 07:42:34;;;;;;;32.28;25.35;;;17.00;99.90;;;;;;5021132;28;20109;-79
2021/09/18 07:44:59;;;;;;;29.67;22.63;;;17.20;99.90;;;;;;5018009;28;20133;-79
2021/09/18 07:47:25;;;;;;;24.55;20.50;;;17.90;99.90;;;;;;5018718;28;20349;-79
2021/09/18 07:49:51;;;;;;;28.10;20.38;;;18.40;99.90;;;;;;5018208;28;20451;-79
2021/09/18 07:52:16;;;;;;;22.70;18.98;;;19.00;99.90;;;;;;5035701;28;20594;-79
2021/09/18 07:54:42;;;;;;;23.38;19.13;;;19.60;99.90;;;;;;5020416;28;20080;-79
2021/09/18 07:57:09;;;;;;;22.80;18.65;;;20.30;99.90;;;;;;5019630;28;20034;-79
2021/09/18 07:59:34;;;;;;;21.52;17.20;;;21.00;99.90;;;;;;5036311;28;20034;-79
2021/09/18 08:02:00;;;;;;;22.75;16.75;;;21.60;99.90;;;;;;5021013;28;20041;-81
2021/09/18 08:04:27;;;;;;;19.98;16.65;;;21.80;99.90;;;;;;5020000;28;20101;-80
2021/09/18 08:06:53;;;;;;;19.52;17.00;;;22.50;99.90;;;;;;5020343;28;20068;-80
2021/09/18 08:09:18;;;;;;;19.70;16.42;;;22.10;99.90;;;;;;5020376;28;20025;-80
2021/09/18 08:11:44;;;;;;;18.48;15.48;;;22.10;99.90;;;;;;5019637;28;20061;-79
2021/09/18 08:14:10;;;;;;;16.75;14.48;;;22.10;99.90;;;;;;5034159;28;20032;-79
2021/09/18 08:16:36;;;;;;;16.45;13.45;;;22.00;99.90;;;;;;5018705;28;20018;-79
2021/09/18 08:19:01;;;;;;;15.00;13.25;;;22.80;99.90;;;;;;5018458;28;20082;-80
2021/09/18 08:21:27;;;;;;;16.23;13.70;;;22.80;99.90;;;;;;5033562;28;20471;-79
2021/09/18 08:23:53;;;;;;;16.98;14.70;;;23.20;99.90;;;;;;5033822;28;20030;-79
2021/09/18 08:26:18;;;;;;;15.70;14.07;;;23.70;99.90;;;;;;5018927;28;20033;-79
2021/09/18 08:28:44;;;;;;;15.32;13.10;;;24.70;99.90;;;;;;5018526;28;20026;-79
2021/09/18 08:31:10;;;;;;;15.73;12.70;;;25.60;99.90;;;;;;5018804;28;20076;-79
2021/09/18 08:33:36;;;;;;;13.52;12.20;;;26.20;99.90;;;;;;5015771;28;20587;-78
2021/09/18 08:36:01;;;;;;;13.15;11.60;;;26.50;99.90;;;;;;5035878;28;20072;-79
2021/09/18 08:38:27;;;;;;;13.25;11.82;;;25.30;99.90;;;;;;5030907;28;20025;-78
2021/09/18 08:40:54;;;;;;;12.55;11.30;;;25.30;99.90;;;;;;5031941;28;20052;-78
2021/09/18 08:43:20;;;;;;;13.82;11.40;;;26.00;99.90;;;;;;5032365;28;20025;-78
2021/09/18 08:45:47;;;;;;;14.10;11.27;;;26.70;99.00;;;;;;5032081;28;20022;-78
2021/09/18 08:48:16;;;;;;;14.88;11.50;;;27.30;98.30;;;;;;5015582;28;20042;-79
2021/09/18 08:50:42;;;;;;;14.15;12.20;;;27.30;97.30;;;;;;5015364;28;20030;-79
2021/09/18 08:53:08;;;;;;;13.00;11.10;;;27.40;97.60;;;;;;5015842;28;20050;-78
2021/09/18 08:55:34;;;;;;;13.13;10.73;;;26.90;97.50;;;;;;5015371;28;20030;-78
2021/09/18 08:57:59;;;;;;;11.10;10.00;;;26.50;97.90;;;;;;5015545;28;20421;-79
2021/09/18 09:00:31;;;;;;;10.85;9.05;;;26.50;97.90;;;;;;5013806;28;20030;-79
2021/09/18 09:03:08;;;;;;;10.18;8.27;;;26.20;97.60;;;;;;5029805;28;20084;-79
2021/09/18 09:05:37;;;;;;;9.90;8.90;;;25.30;98.40;;;;;;5031472;28;20030;-79
2021/09/18 09:08:06;;;;;;;9.82;8.82;;;24.50;99.90;;;;;;5032812;28;20018;-79
2021/09/18 09:10:32;;;;;;;8.73;7.80;;;24.00;99.90;;;;;;5017186;28;20029;-79
2021/09/18 09:13:15;;;;;;;8.95;7.68;;;25.20;99.90;;;;;;5018605;28;20113;-79
2021/09/18 09:15:44;;;;;;;8.77;7.88;;;26.10;98.60;;;;;;5018560;28;20506;-80
2021/09/18 09:18:26;;;;;;;7.57;6.85;;;26.90;97.20;;;;;;5031349;28;20434;-79
2021/09/18 09:21:13;;;;;;;9.00;7.32;;;27.10;95.70;;;;;;5030424;28;20022;-79
2021/09/18 09:23:41;;;;;;;7.97;6.60;;;26.20;96.70;;;;;;5015614;28;20022;-79
2021/09/18 09:26:10;;;;;;;7.10;6.35;;;25.80;98.20;;;;;;5015711;28;20070;-79
2021/09/18 09:28:41;;;;;;;6.80;6.18;;;25.90;97.10;;;;;;5033283;28;20033;-79
2021/09/18 09:31:26;;;;;;;8.38;6.47;;;25.80;96.80;;;;;;5019093;28;20037;-80
2021/09/18 09:34:21;;;;;;;8.13;6.43;;;25.10;98.40;;;;;;5034559;28;20365;-79
2021/09/18 09:36:52;;;;;;;9.55;6.25;;;25.10;98.80;;;;;;5008605;28;20534;-79
2021/09/18 09:39:24;;;;;;;7.18;5.70;;;24.90;99.00;;;;;;5016455;28;20033;-79
2021/09/18 09:41:52;;;;;;;6.75;5.97;;;25.30;98.90;;;;;;5017003;28;20049;-79
2021/09/18 09:44:23;;;;;;;7.68;5.75;;;25.60;98.20;;;;;;5032490;28;20475;-79
2021/09/18 09:47:10;;;;;;;7.78;5.93;;;26.60;96.60;;;;;;5032605;28;20026;-79
2021/09/18 09:49:59;;;;;;;5.70;4.93;;;26.10;96.60;;;;;;5032399;28;20069;-79
2021/09/18 09:52:35;;;;;;;5.82;5.15;;;26.20;96.10;;;;;;5017466;28;20037;-79
2021/09/18 09:55:28;;;;;;;5.60;4.28;;;27.40;94.80;;;;;;5032684;28;20056;-79
2021/09/18 09:57:57;;;;;;;7.18;4.18;;;27.50;92.70;;;;;;5015635;28;20041;-79
2021/09/18 10:00:34;;;;;;;4.32;3.92;;;27.60;92.70;;;;;;5016557;28;20076;-79
2021/09/18 10:02:59;;;;;;;7.40;4.18;;;27.70;92.00;;;;;;5014158;28;20029;-78
2021/09/18 10:05:25;;;;;;;5.07;3.42;;;27.20;93.20;;;;;;5031147;28;20282;-79
2021/09/18 10:07:51;;;;;;;4.43;3.65;;;27.30;93.00;;;;;;5016153;28;20029;-79
2021/09/18 10:10:16;;;;;;;4.70;4.30;;;27.40;92.10;;;;;;5018524;28;20038;-79
2021/09/18 10:12:43;;;;;;;4.65;3.95;;;27.70;92.20;;;;;;5018411;28;20030;-79
2021/09/18 10:15:10;;;;;;;6.68;4.85;;;28.10;91.80;;;;;;5023139;28;20018;-79
2021/09/18 10:17:40;;;;;;;6.75;5.30;;;27.70;91.70;;;;;;5036456;28;20530;-79
2021/09/18 10:20:13;;;;;;;5.20;4.70;;;27.60;91.30;;;;;;5016360;28;20103;-79
2021/09/18 10:25:33;;;;;;;8.55;7.65;;;27.40;91.20;;;;;;5014830;28;20037;-79
2021/09/18 10:28:10;;;;;;;7.13;6.07;;;27.20;91.60;;;;;;5016843;28;20014;-79
2021/09/18 10:30:53;;;;;;;6.50;5.90;;;27.40;91.70;;;;;;5031687;28;20038;-78
2021/09/18 10:33:53;;;;;;;;;;;27.80;91.60;;;;;;5014192;28;20026;-78
2021/09/18 10:36:21;;;;;;;6.90;4.68;;;27.10;91.60;;;;;;4977752;28;19905;-79
2021/09/18 10:38:52;;;;;;;4.78;4.25;;;27.60;91.10;;;;;;5016068;28;20042;-79
2021/09/18 10:41:21;;;;;;;6.18;4.43;;;27.80;90.60;;;;;;5015635;28;20060;-79
2021/09/18 10:43:59;;;;;;;4.63;4.22;;;27.90;90.90;;;;;;5014828;28;20104;-78
2021/09/18 10:46:45;;;;;;;6.00;4.50;;;27.80;91.00;;;;;;5029458;28;20017;-78
2021/09/18 10:49:37;;;;;;;6.57;3.55;;;27.50;91.00;;;;;;5030326;28;20502;-78
2021/09/18 10:52:15;;;;;;;;;;;28.70;87.40;;;;;;5029334;28;20022;-79
2021/09/18 10:55:01;;;;;;;4.85;3.90;;;28.00;88.90;;;;;;5012850;28;19920;-79
2021/09/18 10:57:51;;;;;;;5.50;3.53;;;27.40;90.60;;;;;;5027924;28;20026;-78
2021/09/18 11:00:22;;;;;;;3.92;3.20;;;27.20;90.70;;;;;;5011635;28;20261;-78
2021/09/18 11:02:53;;;;;;;3.92;3.05;;;27.50;90.20;;;;;;5028776;28;20502;-78
2021/09/18 11:05:21;;;;;;;3.38;3.08;;;27.80;90.30;;;;;;5012147;28;20052;-78
2021/09/18 11:07:54;;;;;;;6.50;3.80;;;27.50;90.00;;;;;;5013738;28;20037;-80
2021/09/18 11:10:19;;;;;;;3.55;3.15;;;27.90;89.30;;;;;;5032586;28;20034;-79
2021/09/18 11:13:04;;;;;;;2.80;2.60;;;28.50;86.70;;;;;;5035884;28;20051;-79
2021/09/18 11:15:46;;;;;;;5.50;3.25;;;29.30;85.30;;;;;;5020477;28;20025;-79
2021/09/18 11:18:17;;;;;;;4.90;4.50;;;28.90;85.00;;;;;;5020021;28;20083;-79
2021/09/18 11:20:44;;;;;;;4.43;4.03;;;29.00;83.60;;;;;;5035343;28;20112;-79
2021/09/18 11:23:10;;;;;;;6.05;5.20;;;28.80;84.90;;;;;;5020615;28;20033;-79
2021/09/18 11:25:43;;;;;;;7.57;4.65;;;28.30;85.20;;;;;;5041402;28;20046;-79
2021/09/18 11:28:12;;;;;;;5.70;4.07;;;28.60;86.30;;;;;;5043707;28;20030;-79
2021/09/18 11:30:43;;;;;;;6.10;4.50;;;29.60;84.20;;;;;;5043120;28;20053;-79
2021/09/18 11:33:10;;;;;;;5.53;5.00;;;30.10;81.80;;;;;;5028183;28;20030;-78
2021/09/18 11:35:38;;;;;;;7.68;5.03;;;30.00;81.90;;;;;;5027526;28;20032;-78
2021/09/18 11:38:06;;;;;;;5.70;4.28;;;29.80;80.50;;;;;;5024880;28;20029;-79
2021/09/18 11:40:41;;;;;;;4.50;3.60;;;29.60;81.00;;;;;;5035535;28;20029;-79
2021/09/18 11:43:06;;;;;;;4.72;4.32;;;31.10;80.00;;;;;;5035361;28;20033;-77
2021/09/18 11:45:38;;;;;;;8.05;6.13;;;31.60;77.30;;;;;;5030322;28;20383;-78
2021/09/18 11:48:04;;;;;;;;;;;29.80;78.80;;;;;;5030999;28;20029;-78
2021/09/18 11:50:33;;;;;;;6.28;5.07;;;28.20;84.30;;;;;;5032215;28;19905;-80
2021/09/18 11:53:01;;;;;;;4.47;3.90;;;28.60;84.80;;;;;;5034216;28;20117;-80
2021/09/18 11:55:42;;;;;;;5.82;4.40;;;29.90;81.70;;;;;;5031497;28;20286;-78
2021/09/18 11:58:14;;;;;;;4.60;4.18;;;29.70;81.70;;;;;;5030076;28;20029;-78
2021/09/18 12:01:02;;;;;;;5.57;4.70;;;29.60;79.30;;;;;;5032297;28;20057;-79
2021/09/18 12:03:29;;;;;;;4.85;4.35;;;28.40;79.60;;;;;;5018900;28;20153;-78
2021/09/18 12:06:05;;;;;;;7.00;4.78;;;26.60;85.00;;;;;;5018628;28;20025;-78
2021/09/18 12:08:32;;;;;;;5.10;4.60;;;25.90;88.00;;;;;;5018098;28;20394;-79
2021/09/18 12:11:13;;;;;;;5.03;4.53;;;25.50;90.00;;;;;;5018510;28;20108;-79
2021/09/18 12:13:42;;;;;;;5.70;4.80;;;25.90;89.40;;;;;;5019261;28;20029;-79
2021/09/18 12:16:09;;;;;;;6.72;4.88;;;26.20;87.60;;;;;;5020134;28;20033;-79
2021/09/18 12:18:37;;;;;;;15.25;14.05;;;26.30;87.30;;;;;;5018123;28;20090;-79
2021/09/18 12:21:04;;;;;;;4.63;3.78;;;26.30;86.90;;;;;;5002168;28;20026;-79
2021/09/18 12:23:32;;;;;;;4.32;3.50;;;26.40;86.50;;;;;;5019109;28;20033;-79
2021/09/18 12:26:00;;;;;;;3.72;3.42;;;27.30;85.00;;;;;;5016659;28;20018;-79
2021/09/18 12:28:27;;;;;;;7.47;4.80;;;27.90;84.10;;;;;;5033395;28;20026;-79
2021/09/18 12:30:54;;;;;;;5.25;3.70;;;27.00;84.50;;;;;;5033305;28;20026;-79
2021/09/18 12:33:33;;;;;;;6.07;4.47;;;26.30;88.40;;;;;;5017615;28;20034;-79
2021/09/18 12:36:08;;;;;;;3.92;3.50;;;27.10;86.00;;;;;;5018853;28;20608;-79
2021/09/18 12:38:35;;;;;;;4.40;4.00;;;27.60;87.10;;;;;;5033334;28;20396;-79
2021/09/18 12:41:05;;;;;;;6.22;4.00;;;27.70;82.60;;;;;;5033885;28;20486;-79
2021/09/18 12:43:31;;;;;;;6.93;4.90;;;27.70;84.00;;;;;;5031504;28;20018;-79